Time;durP1;ratioP1;P1;durP2;ratioP2;P2;SDS_P1;SDS_P2;PMS_P1;PMS_P2;Temp;Humidity;BMP_temperature;BMP_pressure;BME280_temperature;BME280_humidity;BME280_pressure;Samples;Min_cycle;Max_cycle;Signal;HPM_P1;HPM_P2
2023/12/23 00:02:07;;;;;;;7.47;1.53;;;8.40;99.90;;;;;;10153053;28;20301;-62
2023/12/23 00:07:25;;;;;;;9.53;1.50;;;8.40;99.90;;;;;;10144451;28;20851;-64
2023/12/23 00:12:44;;;;;;;8.67;1.60;;;8.40;99.90;;;;;;10155088;28;20746;-63
2023/12/23 00:17:48;;;;;;;6.53;1.13;;;8.40;99.90;;;;;;10150118;28;20205;-66
2023/12/23 00:22:55;;;;;;;5.43;1.60;;;8.40;99.90;;;;;;10150853;28;21745;-66
2023/12/23 00:28:00;;;;;;;8.57;1.70;;;8.40;99.90;;;;;;10140889;28;20231;-64
2023/12/23 00:33:06;;;;;;;8.03;2.07;;;8.40;99.90;;;;;;10285550;28;21018;-63
2023/12/23 00:38:15;;;;;;;9.20;1.63;;;8.40;99.90;;;;;;10134247;28;20276;-64
2023/12/23 00:43:20;;;;;;;9.27;1.80;;;8.40;99.90;;;;;;10133885;28;20732;-64
2023/12/23 00:48:25;;;;;;;10.93;1.70;;;8.40;99.90;;;;;;10176994;28;20223;-66
2023/12/23 00:53:31;;;;;;;7.70;1.30;;;8.40;99.90;;;;;;10165931;28;21279;-66
2023/12/23 00:58:35;;;;;;;7.13;2.23;;;8.40;99.90;;;;;;10147194;28;20524;-65
2023/12/23 01:03:41;;;;;;;8.70;1.73;;;8.40;99.90;;;;;;10147387;28;20342;-61
2023/12/23 01:08:48;;;;;;;9.77;2.20;;;8.40;99.90;;;;;;10148860;28;20239;-64
2023/12/23 01:13:52;;;;;;;11.63;1.83;;;8.40;99.90;;;;;;10141114;28;20673;-65
2023/12/23 01:19:03;;;;;;;10.07;2.00;;;8.40;99.90;;;;;;10279948;28;20766;-64
2023/12/23 01:24:09;;;;;;;8.03;1.40;;;8.50;99.90;;;;;;10108478;28;20481;-64
2023/12/23 01:29:28;;;;;;;8.57;2.00;;;8.50;99.90;;;;;;10152862;28;20953;-64
2023/12/23 01:34:38;;;;;;;8.53;1.67;;;8.50;99.90;;;;;;10103265;28;20603;-64
2023/12/23 01:39:45;;;;;;;7.27;1.30;;;8.50;99.90;;;;;;10127586;28;21220;-64
2023/12/23 01:44:50;;;;;;;6.80;1.23;;;8.50;99.90;;;;;;10171867;28;20250;-66
2023/12/23 01:49:54;;;;;;;4.23;1.40;;;8.50;99.90;;;;;;10156334;28;20742;-66
2023/12/23 01:55:02;;;;;;;7.57;1.50;;;8.40;99.90;;;;;;10174255;28;20262;-63
2023/12/23 02:00:08;;;;;;;6.50;1.40;;;8.40;99.90;;;;;;10183274;28;20311;-64
2023/12/23 02:05:13;;;;;;;6.47;1.30;;;8.50;99.90;;;;;;10123384;28;20781;-63
2023/12/23 02:10:24;;;;;;;6.90;1.30;;;8.50;99.90;;;;;;10148724;28;20281;-64
2023/12/23 02:15:30;;;;;;;7.13;1.30;;;8.50;99.90;;;;;;10155690;28;20339;-65
2023/12/23 02:20:34;;;;;;;7.50;1.60;;;8.50;99.90;;;;;;10135628;28;20262;-65
2023/12/23 02:25:41;;;;;;;4.97;1.10;;;8.50;99.90;;;;;;10163078;28;20300;-64
2023/12/23 02:30:47;;;;;;;11.43;2.23;;;8.50;99.90;;;;;;10146330;28;20364;-63
2023/12/23 02:35:52;;;;;;;7.07;1.57;;;8.50;99.90;;;;;;10136738;28;20711;-59
2023/12/23 02:40:58;;;;;;;11.90;2.40;;;8.50;99.90;;;;;;10130051;28;20250;-60
2023/12/23 02:46:03;;;;;;;10.83;2.60;;;8.50;99.90;;;;;;10151741;28;20254;-66
2023/12/23 02:51:07;;;;;;;6.67;2.50;;;8.50;99.90;;;;;;10122403;28;20686;-65
2023/12/23 02:56:13;;;;;;;8.67;2.50;;;8.50;99.90;;;;;;10128657;28;20308;-63
2023/12/23 03:01:20;;;;;;;9.87;2.73;;;8.50;99.90;;;;;;10188833;28;20292;-63
2023/12/23 03:06:39;;;;;;;6.77;2.47;;;8.50;99.90;;;;;;10195451;28;20900;-61
2023/12/23 03:11:44;;;;;;;9.67;2.50;;;8.50;99.90;;;;;;10100384;28;20234;-68
2023/12/23 03:16:49;;;;;;;8.40;2.27;;;8.50;99.90;;;;;;10126600;28;20230;-68
2023/12/23 03:21:53;;;;;;;8.93;2.80;;;8.50;99.90;;;;;;10122532;28;20311;-65
2023/12/23 03:26:58;;;;;;;8.30;2.90;;;8.50;99.90;;;;;;10127245;28;20708;-67
2023/12/23 03:32:07;;;;;;;8.60;3.37;;;8.50;99.90;;;;;;10123260;28;20243;-65
2023/12/23 03:37:12;;;;;;;13.23;4.17;;;8.50;99.90;;;;;;10077291;28;20293;-65
2023/12/23 03:47:47;;;;;;;6.60;3.50;;;8.50;99.90;;;;;;10186420;28;20742;-67
2023/12/23 03:52:51;;;;;;;16.00;5.80;;;8.50;99.90;;;;;;10119712;28;20297;-66
2023/12/23 03:57:57;;;;;;;7.07;3.20;;;8.60;99.90;;;;;;10122630;28;20614;-61
2023/12/23 04:03:09;;;;;;;8.70;5.27;;;8.60;99.90;;;;;;10152300;28;20313;-64
2023/12/23 04:08:16;;;;;;;16.23;7.27;;;8.50;99.90;;;;;;10149069;28;20686;-61
2023/12/23 04:13:22;;;;;;;12.10;6.37;;;8.60;99.90;;;;;;10114588;28;20289;-64
2023/12/23 04:18:26;;;;;;;10.70;6.33;;;8.60;99.90;;;;;;10147452;28;20292;-65
2023/12/23 04:23:31;;;;;;;11.67;6.63;;;8.70;99.90;;;;;;10136379;28;20893;-62
2023/12/23 04:28:47;;;;;;;13.40;6.20;;;8.80;99.90;;;;;;10173249;28;20614;-63
2023/12/23 04:33:52;;;;;;;10.30;5.20;;;8.90;99.90;;;;;;10152311;28;21160;-66
2023/12/23 04:38:56;;;;;;;9.33;5.53;;;9.00;99.90;;;;;;10154236;28;20231;-64
2023/12/23 04:44:03;;;;;;;13.73;6.40;;;9.00;99.90;;;;;;10126829;28;20247;-67
2023/12/23 04:49:07;;;;;;;11.20;6.33;;;9.10;99.90;;;;;;10335881;28;20663;-61
2023/12/23 04:54:16;;;;;;;10.53;5.10;;;9.10;99.90;;;;;;10188853;28;21194;-67
2023/12/23 04:59:22;;;;;;;13.83;5.87;;;9.20;99.90;;;;;;10154699;28;20640;-67
2023/12/23 05:04:34;;;;;;;13.50;6.07;;;9.20;99.90;;;;;;10210385;28;20252;-62
2023/12/23 05:09:52;;;;;;;16.57;5.97;;;9.30;99.90;;;;;;10118070;28;20294;-62
2023/12/23 05:15:02;;;;;;;9.50;5.67;;;9.30;99.90;;;;;;9982826;28;20957;-61
2023/12/23 05:20:09;;;;;;;12.50;5.20;;;9.40;99.90;;;;;;9988011;28;20700;-62
2023/12/23 05:25:14;;;;;;;11.30;6.07;;;9.40;99.90;;;;;;9983978;28;21100;-62
2023/12/23 05:30:20;;;;;;;9.80;5.73;;;9.40;99.90;;;;;;9966563;28;20738;-63
2023/12/23 05:35:24;;;;;;;10.37;5.67;;;9.40;99.90;;;;;;10004751;28;20277;-63
2023/12/23 05:40:29;;;;;;;11.80;6.00;;;9.40;99.90;;;;;;9983492;28;20368;-63
2023/12/23 05:45:35;;;;;;;9.93;6.13;;;9.50;99.90;;;;;;10052873;28;20258;-63
2023/12/23 05:50:40;;;;;;;9.47;5.43;;;9.50;99.90;;;;;;10144795;28;20223;-61
2023/12/23 05:55:44;;;;;;;9.30;5.70;;;9.40;99.90;;;;;;10155923;28;20255;-60
2023/12/23 06:00:50;;;;;;;12.30;5.83;;;9.40;99.90;;;;;;10156577;28;20744;-66
2023/12/23 06:05:54;;;;;;;16.50;6.23;;;9.40;99.90;;;;;;10157979;28;20476;-60
2023/12/23 06:10:59;;;;;;;16.37;5.60;;;9.40;99.90;;;;;;10207131;28;20227;-59
2023/12/23 06:16:17;;;;;;;10.20;4.47;;;9.40;99.90;;;;;;10208554;28;20579;-66
2023/12/23 06:21:22;;;;;;;11.33;4.90;;;9.50;99.90;;;;;;10134321;28;20254;-63
2023/12/23 06:26:26;;;;;;;14.27;5.03;;;9.50;99.90;;;;;;10143274;28;20250;-63
2023/12/23 06:31:35;;;;;;;9.77;3.87;;;9.50;99.90;;;;;;10130157;28;20231;-63
2023/12/23 06:36:39;;;;;;;9.87;4.00;;;9.50;99.90;;;;;;10129520;28;20361;-65
2023/12/23 06:41:45;;;;;;;14.20;4.77;;;9.50;99.90;;;;;;10143410;28;20737;-63
2023/12/23 06:46:52;;;;;;;10.13;4.43;;;9.50;99.90;;;;;;10145764;28;20274;-62
2023/12/23 06:51:56;;;;;;;15.83;4.80;;;9.50;99.90;;;;;;10175334;28;20230;-67
2023/12/23 06:57:01;;;;;;;12.97;5.30;;;9.50;99.90;;;;;;10186013;28;20272;-62
2023/12/23 07:02:06;;;;;;;12.53;4.53;;;9.50;99.90;;;;;;10144282;28;20675;-60
2023/12/23 07:07:11;;;;;;;7.63;4.00;;;9.50;99.90;;;;;;10126645;28;20296;-63
2023/12/23 07:12:16;;;;;;;11.67;4.20;;;9.50;99.90;;;;;;10109437;28;20981;-62
2023/12/23 07:17:24;;;;;;;11.63;4.60;;;9.50;99.90;;;;;;10132915;28;20835;-59
2023/12/23 07:22:44;;;;;;;12.10;4.17;;;9.40;99.90;;;;;;10087934;28;20466;-60
2023/12/23 07:27:48;;;;;;;11.35;4.57;;;9.50;99.90;;;;;;10104646;28;21232;-60
2023/12/23 07:32:55;;;;;;;11.83;4.30;;;9.70;99.90;;;;;;10143320;28;20471;-64
2023/12/23 07:38:00;;;;;;;13.00;3.80;;;9.70;99.90;;;;;;10124988;28;20230;-68
2023/12/23 07:43:04;;;;;;;10.47;4.40;;;9.70;99.90;;;;;;10118411;28;20843;-65
2023/12/23 07:48:10;;;;;;;7.67;3.50;;;9.60;99.90;;;;;;10103939;28;20279;-67
2023/12/23 07:53:14;;;;;;;17.30;3.97;;;9.60;99.90;;;;;;10139602;28;20320;-64
2023/12/23 07:58:18;;;;;;;9.43;3.53;;;9.60;99.90;;;;;;10120497;28;20737;-67
2023/12/23 08:03:24;;;;;;;9.23;3.80;;;9.60;99.90;;;;;;10167685;28;20263;-66
2023/12/23 08:08:29;;;;;;;6.80;3.67;;;9.60;99.90;;;;;;10208798;28;20294;-61
2023/12/23 08:14:06;;;;;;;14.00;4.40;;;9.60;99.90;;;;;;10154227;28;20250;-71
2023/12/23 08:19:13;;;;;;;13.10;4.77;;;9.60;99.90;;;;;;10144559;28;20242;-65
2023/12/23 08:24:22;;;;;;;12.90;4.87;;;9.60;99.90;;;;;;10080880;28;21105;-68
2023/12/23 08:29:27;;;;;;;10.00;4.27;;;9.70;99.90;;;;;;10095612;28;20410;-61
2023/12/23 08:34:32;;;;;;;9.30;4.27;;;9.70;99.90;;;;;;10095819;28;20357;-60
2023/12/23 08:39:43;;;;;;;9.93;4.17;;;9.60;99.90;;;;;;10108985;28;20720;-63
2023/12/23 08:44:49;;;;;;;17.10;4.50;;;9.60;99.90;;;;;;10122510;28;20349;-62
2023/12/23 08:49:55;;;;;;;13.40;4.57;;;9.70;99.90;;;;;;10097933;28;20211;-64
2023/12/23 08:54:59;;;;;;;13.80;3.73;;;9.70;99.90;;;;;;10056171;28;20269;-66
2023/12/23 09:00:05;;;;;;;13.60;4.60;;;9.70;99.90;;;;;;10140686;28;20227;-62
2023/12/23 09:05:16;;;;;;;17.67;4.40;;;9.80;99.90;;;;;;10102816;28;20683;-69
2023/12/23 09:10:22;;;;;;;11.43;3.90;;;9.80;99.90;;;;;;10063882;28;20256;-67
2023/12/23 09:15:26;;;;;;;10.63;3.40;;;9.80;99.90;;;;;;10075506;28;20388;-68
2023/12/23 09:20:31;;;;;;;14.70;3.70;;;9.80;99.90;;;;;;10103360;28;20899;-65
2023/12/23 09:25:40;;;;;;;10.90;3.63;;;9.90;99.90;;;;;;10103947;28;20300;-63
2023/12/23 09:30:44;;;;;;;6.80;2.90;;;9.90;99.90;;;;;;10128679;28;21017;-67
2023/12/23 09:35:50;;;;;;;12.73;3.00;;;9.90;99.90;;;;;;10173445;28;21009;-62
2023/12/23 09:40:58;;;;;;;10.00;2.70;;;10.00;99.90;;;;;;10283319;28;20199;-62
2023/12/23 09:46:05;;;;;;;12.07;3.50;;;10.00;99.90;;;;;;10131305;28;20345;-62
2023/12/23 09:51:12;;;;;;;10.47;2.73;;;10.00;99.90;;;;;;10183662;28;21157;-62
2023/12/23 09:56:19;;;;;;;11.60;2.80;;;10.10;99.90;;;;;;10107321;28;20496;-71
2023/12/23 10:01:24;;;;;;;12.53;3.13;;;10.10;99.90;;;;;;10141827;28;20200;-63
2023/12/23 10:06:30;;;;;;;12.70;2.97;;;10.10;99.90;;;;;;10107425;28;20287;-66
2023/12/23 10:11:59;;;;;;;9.70;3.03;;;10.20;99.90;;;;;;10088161;28;20330;-67
2023/12/23 10:17:05;;;;;;;11.77;3.20;;;10.20;99.90;;;;;;10145956;28;20752;-69
2023/12/23 10:22:10;;;;;;;15.07;3.50;;;10.20;99.90;;;;;;10079665;28;20497;-65
2023/12/23 10:27:16;;;;;;;11.87;3.10;;;10.30;99.90;;;;;;10105360;28;20289;-64
2023/12/23 10:32:25;;;;;;;10.90;3.30;;;10.30;99.90;;;;;;10113180;28;20394;-60
2023/12/23 10:37:35;;;;;;;6.40;2.47;;;10.30;99.90;;;;;;10069064;28;22378;-62
2023/12/23 10:42:43;;;;;;;7.47;2.83;;;10.30;99.90;;;;;;10140017;28;20251;-62
2023/12/23 10:47:50;;;;;;;7.83;2.50;;;10.30;99.90;;;;;;10144407;28;20514;-61
2023/12/23 10:53:18;;;;;;;8.17;3.17;;;10.30;99.90;;;;;;10082741;28;20254;-66
2023/12/23 10:58:29;;;;;;;6.67;3.00;;;10.20;99.90;;;;;;10122756;28;20245;-63
2023/12/23 11:03:35;;;;;;;8.40;2.90;;;10.20;99.90;;;;;;10092094;28;21134;-64
2023/12/23 11:08:41;;;;;;;9.40;3.50;;;10.20;99.90;;;;;;10102832;28;20662;-63
2023/12/23 11:14:04;;;;;;;9.20;4.63;;;10.10;99.90;;;;;;10187044;28;20247;-60
2023/12/23 11:19:11;;;;;;;13.73;5.83;;;10.10;99.90;;;;;;10099251;28;20782;-61
2023/12/23 11:24:40;;;;;;;8.35;5.38;;;10.00;99.90;;;;;;10127977;28;20309;-61
2023/12/23 11:29:48;;;;;;;13.27;6.33;;;10.00;99.90;;;;;;10229669;28;20616;-65
2023/12/23 11:34:54;;;;;;;13.20;5.37;;;10.00;99.90;;;;;;10075389;28;20899;-60
2023/12/23 11:40:16;;;;;;;10.03;4.40;;;10.00;99.90;;;;;;10079118;28;20228;-60
2023/12/23 11:45:23;;;;;;;8.40;4.20;;;10.00;99.90;;;;;;10138944;23;20320;-65
2023/12/23 11:50:29;;;;;;;10.57;3.57;;;10.00;99.90;;;;;;10064854;28;20322;-64
2023/12/23 11:55:37;;;;;;;10.03;3.37;;;10.00;99.90;;;;;;10053887;28;20376;-64
2023/12/23 12:00:42;;;;;;;10.70;3.20;;;10.00;99.90;;;;;;10113327;28;20354;-67
2023/12/23 12:05:46;;;;;;;8.83;3.27;;;10.00;99.90;;;;;;10087611;28;20652;-65
2023/12/23 12:10:56;;;;;;;8.20;3.13;;;10.00;99.90;;;;;;10123409;28;20726;-65
2023/12/23 12:16:08;;;;;;;8.37;2.73;;;10.00;99.90;;;;;;10051483;28;20802;-63
2023/12/23 12:21:20;;;;;;;10.60;3.13;;;10.00;99.90;;;;;;10236393;28;20656;-63
2023/12/23 12:26:27;;;;;;;10.27;2.97;;;10.00;99.90;;;;;;10182351;28;20768;-64
2023/12/23 12:31:33;;;;;;;7.00;2.50;;;10.10;99.90;;;;;;10116435;28;20219;-65
2023/12/23 12:36:38;;;;;;;7.23;2.47;;;10.10;99.90;;;;;;10136799;28;20256;-60
2023/12/23 12:41:46;;;;;;;11.77;2.47;;;10.20;99.90;;;;;;10071883;28;20656;-68
2023/12/23 12:46:58;;;;;;;6.00;2.47;;;10.20;99.90;;;;;;10080809;28;20366;-65
2023/12/23 12:52:03;;;;;;;5.43;2.43;;;10.20;99.90;;;;;;10099651;28;20294;-63
2023/12/23 12:57:09;;;;;;;9.88;2.63;;;10.20;99.90;;;;;;10060567;28;20254;-69
2023/12/23 13:02:15;;;;;;;7.20;2.38;;;10.20;99.90;;;;;;10145699;28;20602;-69
2023/12/23 13:07:23;;;;;;;8.07;2.30;;;10.30;99.90;;;;;;10192070;28;20691;-61
2023/12/23 13:12:33;;;;;;;10.17;2.20;;;10.30;99.90;;;;;;10080176;28;20362;-63
2023/12/23 13:17:41;;;;;;;7.30;2.30;;;10.40;99.90;;;;;;10089718;28;20773;-71
2023/12/23 13:22:45;;;;;;;6.20;2.20;;;10.40;99.90;;;;;;10104499;28;20291;-63
2023/12/23 13:28:00;;;;;;;8.30;1.85;;;10.40;99.90;;;;;;10063547;28;20267;-62
2023/12/23 13:33:04;;;;;;;3.45;1.33;;;10.50;99.90;;;;;;10073298;28;20671;-73
2023/12/23 13:38:08;;;;;;;5.13;1.87;;;10.50;99.90;;;;;;10095930;28;20814;-65
2023/12/23 13:43:14;;;;;;;4.95;1.60;;;10.60;99.90;;;;;;10136519;28;20265;-64
2023/12/23 13:48:18;;;;;;;2.67;1.30;;;10.60;99.90;;;;;;10169865;28;20223;-63
2023/12/23 13:53:22;;;;;;;6.35;1.63;;;10.60;99.90;;;;;;10115913;28;20646;-60
2023/12/23 13:58:27;;;;;;;5.13;1.55;;;10.70;99.90;;;;;;10106586;28;20795;-60
2023/12/23 14:03:31;;;;;;;4.57;1.43;;;10.70;99.90;;;;;;10083592;28;20788;-63
2023/12/23 14:08:38;;;;;;;4.03;1.20;;;10.80;99.90;;;;;;10090800;28;20271;-66
2023/12/23 14:13:44;;;;;;;4.63;1.30;;;10.80;99.90;;;;;;10132551;28;20764;-74
2023/12/23 14:18:49;;;;;;;4.10;1.50;;;10.80;99.90;;;;;;10077650;28;20827;-61
2023/12/23 14:23:53;;;;;;;4.53;1.40;;;10.80;99.90;;;;;;10094768;28;20255;-64
2023/12/23 14:29:06;;;;;;;3.93;1.10;;;10.90;99.90;;;;;;10126040;28;20896;-69
2023/12/23 14:34:09;;;;;;;4.93;1.70;;;10.90;99.90;;;;;;10128745;28;21546;-65
2023/12/23 14:39:14;;;;;;;8.17;2.37;;;10.90;99.90;;;;;;10090163;28;20939;-59
2023/12/23 14:44:20;;;;;;;7.40;1.93;;;10.90;99.90;;;;;;10107801;28;21169;-65
2023/12/23 14:49:28;;;;;;;4.37;1.73;;;10.90;99.90;;;;;;10086287;28;20746;-61
2023/12/23 14:54:34;;;;;;;5.32;1.70;;;10.80;99.90;;;;;;10107898;28;20324;-63
2023/12/23 14:59:40;;;;;;;5.40;1.70;;;10.80;99.90;;;;;;10207344;22;20312;-65
2023/12/23 15:04:46;;;;;;;5.40;1.80;;;10.90;99.90;;;;;;10252079;28;20247;-60
2023/12/23 15:10:13;;;;;;;6.77;1.70;;;10.90;99.90;;;;;;10308326;23;20631;-61
2023/12/23 15:15:35;;;;;;;4.13;1.60;;;10.90;99.90;;;;;;10182768;28;20259;-59
2023/12/23 15:20:42;;;;;;;2.57;1.33;;;10.90;99.90;;;;;;10234775;28;20659;-61
2023/12/23 15:25:46;;;;;;;5.83;1.80;;;10.90;99.90;;;;;;10284555;28;20224;-68
2023/12/23 15:30:53;;;;;;;5.07;1.85;;;10.90;99.90;;;;;;10202526;28;20237;-68
2023/12/23 15:36:04;;;;;;;6.13;2.27;;;10.90;99.90;;;;;;10226608;28;20228;-62
2023/12/23 15:41:18;;;;;;;4.00;1.87;;;10.90;99.90;;;;;;10212998;28;20465;-62
2023/12/23 15:46:30;;;;;;;2.53;1.40;;;10.80;99.90;;;;;;10227063;28;20495;-62
2023/12/23 15:51:34;;;;;;;3.97;1.40;;;10.80;99.90;;;;;;10226055;28;20257;-64
2023/12/23 15:56:46;;;;;;;3.83;1.37;;;10.80;99.90;;;;;;10144607;28;20495;-65
2023/12/23 16:01:52;;;;;;;5.50;1.52;;;10.80;99.90;;;;;;10211739;28;20204;-69
2023/12/23 16:06:57;;;;;;;6.27;1.57;;;10.80;99.90;;;;;;10198750;28;20220;-63
2023/12/23 16:12:01;;;;;;;6.93;2.27;;;10.70;99.90;;;;;;10206902;28;20240;-63
2023/12/23 16:17:13;;;;;;;4.23;2.03;;;10.70;99.90;;;;;;10180651;28;20639;-62
2023/12/23 16:22:18;;;;;;;4.10;1.95;;;10.70;99.90;;;;;;10213807;23;21011;-67
2023/12/23 16:27:26;;;;;;;5.20;2.92;;;10.60;99.90;;;;;;10213891;28;20969;-62
2023/12/23 16:32:42;;;;;;;6.82;2.60;;;10.70;99.90;;;;;;10175887;28;20806;-60
2023/12/23 16:37:56;;;;;;;6.97;3.00;;;10.60;99.90;;;;;;10107025;28;20766;-64
2023/12/23 16:48:18;;;;;;;10.67;4.57;;;10.40;99.90;;;;;;10133623;28;20305;-62
2023/12/23 16:53:28;;;;;;;8.47;4.20;;;10.30;99.90;;;;;;10109589;28;20680;-62
2023/12/23 16:58:33;;;;;;;5.93;4.73;;;10.20;99.90;;;;;;10088812;28;20260;-61
2023/12/23 17:03:39;;;;;;;8.63;5.10;;;10.20;99.90;;;;;;10083566;28;20624;-61
2023/12/23 17:08:43;;;;;;;8.17;5.53;;;10.20;99.90;;;;;;10021170;28;20236;-64
2023/12/23 17:13:47;;;;;;;8.33;6.17;;;10.10;99.90;;;;;;10087256;28;20794;-61
2023/12/23 17:19:00;;;;;;;7.17;6.43;;;10.10;99.90;;;;;;10093632;28;20252;-58
2023/12/23 17:24:05;;;;;;;9.30;6.17;;;10.00;99.90;;;;;;10045874;28;20311;-58
2023/12/23 17:29:14;;;;;;;9.40;6.30;;;10.00;99.90;;;;;;10009876;28;20228;-57
2023/12/23 17:34:21;;;;;;;7.93;6.10;;;10.00;99.90;;;;;;10003462;28;20729;-59
2023/12/23 17:39:26;;;;;;;6.93;5.87;;;10.00;99.90;;;;;;10001188;28;20331;-58
2023/12/23 17:44:30;;;;;;;7.77;5.63;;;10.00;99.90;;;;;;10026562;28;20738;-58
2023/12/23 17:49:38;;;;;;;6.87;6.13;;;10.00;99.90;;;;;;10022902;28;20370;-57
2023/12/23 17:54:44;;;;;;;6.93;6.23;;;10.00;99.90;;;;;;10037366;28;20756;-58
2023/12/23 17:59:48;;;;;;;8.57;6.30;;;10.00;99.90;;;;;;10035842;28;20244;-60
2023/12/23 18:04:55;;;;;;;8.73;7.30;;;10.00;99.90;;;;;;10078781;28;20251;-59
2023/12/23 18:09:59;;;;;;;9.60;7.63;;;10.00;99.90;;;;;;10071857;28;20654;-58
2023/12/23 18:15:03;;;;;;;8.07;7.27;;;10.00;99.90;;;;;;10031172;28;20248;-57
2023/12/23 18:20:12;;;;;;;9.10;8.17;;;10.00;99.90;;;;;;10015894;28;20842;-58
2023/12/23 18:25:17;;;;;;;8.97;8.07;;;10.00;99.90;;;;;;10013635;28;20761;-57
2023/12/23 18:30:21;;;;;;;12.00;8.50;;;10.00;99.90;;;;;;10039646;28;20796;-58
2023/12/23 18:35:27;;;;;;;12.23;8.30;;;10.00;99.90;;;;;;10030444;28;20244;-57
2023/12/23 18:40:31;;;;;;;10.83;7.10;;;10.00;99.90;;;;;;10044685;28;20433;-59
2023/12/23 18:45:36;;;;;;;9.43;7.77;;;10.00;99.90;;;;;;10011713;28;20395;-56
2023/12/23 18:50:42;;;;;;;8.93;7.67;;;10.00;99.90;;;;;;9999509;28;20544;-58
2023/12/23 18:55:47;;;;;;;10.40;7.17;;;10.00;99.90;;;;;;9993458;28;20791;-56
2023/12/23 19:00:53;;;;;;;9.50;6.70;;;10.00;99.90;;;;;;10035358;28;20740;-57
2023/12/23 19:06:01;;;;;;;8.07;7.17;;;10.00;99.90;;;;;;10044358;28;20304;-58
2023/12/23 19:11:06;;;;;;;8.33;7.00;;;10.10;99.90;;;;;;10028752;28;20220;-58
2023/12/23 19:16:12;;;;;;;9.77;6.47;;;10.00;99.90;;;;;;10030318;28;20317;-58
2023/12/23 19:21:17;;;;;;;9.57;5.80;;;10.10;99.90;;;;;;10033765;28;20282;-60
2023/12/23 19:26:30;;;;;;;8.35;5.32;;;10.10;99.90;;;;;;10010430;28;20249;-59
2023/12/23 19:31:55;;;;;;;10.33;5.93;;;10.10;99.90;;;;;;10025452;28;20221;-58
2023/12/23 19:37:05;;;;;;;12.07;5.20;;;10.10;99.90;;;;;;10009199;28;20566;-58
2023/12/23 19:42:09;;;;;;;7.43;5.20;;;10.10;99.90;;;;;;10034672;28;20341;-57
2023/12/23 19:47:13;;;;;;;5.20;4.70;;;10.20;99.90;;;;;;9990385;28;20374;-60
2023/12/23 19:52:19;;;;;;;9.90;5.57;;;10.20;99.90;;;;;;9969267;28;21253;-64
2023/12/23 19:57:23;;;;;;;9.93;5.83;;;10.20;99.90;;;;;;9963494;28;20724;-61
2023/12/23 20:02:27;;;;;;;7.07;5.47;;;10.20;99.90;;;;;;9953807;28;20717;-60
2023/12/23 20:07:38;;;;;;;8.03;5.53;;;10.20;99.90;;;;;;9986735;28;20460;-62
2023/12/23 20:12:44;;;;;;;7.30;4.80;;;10.20;99.90;;;;;;9942934;28;20276;-63
2023/12/23 20:17:49;;;;;;;7.43;4.78;;;10.30;99.90;;;;;;9982370;28;20278;-62
2023/12/23 20:22:55;;;;;;;7.97;4.80;;;10.30;99.90;;;;;;9972605;28;20276;-64
2023/12/23 20:28:05;;;;;;;8.07;4.57;;;10.40;99.90;;;;;;9967714;28;20701;-61
2023/12/23 20:33:10;;;;;;;6.47;4.27;;;10.40;99.90;;;;;;9956235;28;20279;-61
2023/12/23 20:44:40;;;;;;;5.97;3.50;;;10.40;99.90;;;;;;9961348;28;20311;-62
2023/12/23 20:49:44;;;;;;;11.90;3.27;;;10.40;99.90;;;;;;9959242;28;20294;-61
2023/12/23 20:54:50;;;;;;;3.43;2.83;;;10.40;99.90;;;;;;9948849;28;20322;-62
2023/12/23 20:59:56;;;;;;;6.30;2.97;;;10.50;99.90;;;;;;9964240;28;20308;-61
2023/12/23 21:05:01;;;;;;;9.17;3.07;;;10.50;99.90;;;;;;9981102;28;20730;-60
2023/12/23 21:10:08;;;;;;;6.97;3.40;;;10.60;99.90;;;;;;9963434;28;20248;-62
2023/12/23 21:15:20;;;;;;;10.23;3.17;;;10.60;99.90;;;;;;9973617;28;20643;-60
2023/12/23 21:20:29;;;;;;;6.00;2.50;;;10.60;99.90;;;;;;9986021;28;20244;-61
2023/12/23 21:25:35;;;;;;;6.13;2.67;;;10.70;99.90;;;;;;9984899;28;20716;-63
2023/12/23 21:30:39;;;;;;;5.97;2.35;;;10.70;99.90;;;;;;9976568;28;20961;-60
2023/12/23 21:35:48;;;;;;;9.03;3.20;;;10.60;99.90;;;;;;9981870;28;20240;-61
2023/12/23 21:40:54;;;;;;;4.93;2.60;;;10.60;99.90;;;;;;9999933;28;20256;-63
2023/12/23 21:45:58;;;;;;;4.30;2.30;;;10.70;99.90;;;;;;10001338;28;20758;-63
2023/12/23 21:51:02;;;;;;;5.33;2.33;;;10.70;99.90;;;;;;10002636;28;20742;-61
2023/12/23 21:56:28;;;;;;;5.90;1.90;;;10.70;99.90;;;;;;10002361;28;20735;-65
2023/12/23 22:01:34;;;;;;;6.17;2.37;;;10.70;99.90;;;;;;9983759;28;20736;-62
2023/12/23 22:06:39;;;;;;;7.83;2.20;;;10.60;99.90;;;;;;10001633;28;20265;-62
2023/12/23 22:11:46;;;;;;;5.63;1.90;;;10.70;99.90;;;;;;9964816;28;20700;-64
2023/12/23 22:16:50;;;;;;;5.97;1.87;;;10.70;99.90;;;;;;9969093;28;20704;-64
2023/12/23 22:22:05;;;;;;;5.30;1.63;;;10.70;99.90;;;;;;9952128;28;20832;-62
2023/12/23 22:27:11;;;;;;;4.53;1.60;;;10.70;99.90;;;;;;9972955;28;20279;-61
2023/12/23 22:32:16;;;;;;;6.37;1.60;;;10.60;99.90;;;;;;9996384;28;20311;-61
2023/12/23 22:37:20;;;;;;;5.13;2.00;;;10.60;99.90;;;;;;9969180;28;20244;-61
2023/12/23 22:42:26;;;;;;;3.43;1.50;;;10.60;99.90;;;;;;9981452;28;20715;-61
2023/12/23 22:47:36;;;;;;;5.22;1.90;;;10.60;99.90;;;;;;10026112;28;20697;-62
2023/12/23 22:52:42;;;;;;;4.83;2.27;;;10.60;99.90;;;;;;10015997;28;20220;-64
2023/12/23 22:57:48;;;;;;;6.18;2.28;;;10.60;99.90;;;;;;10033848;28;20252;-62
2023/12/23 23:02:52;;;;;;;6.53;2.38;;;10.60;99.90;;;;;;10005454;28;20303;-62
2023/12/23 23:08:00;;;;;;;4.90;2.30;;;10.60;99.90;;;;;;10041236;28;20557;-62
2023/12/23 23:13:06;;;;;;;5.63;2.60;;;10.60;99.90;;;;;;9988999;28;20256;-63
2023/12/23 23:18:10;;;;;;;5.27;2.40;;;10.60;99.90;;;;;;10006904;28;21224;-63
2023/12/23 23:23:31;;;;;;;6.50;2.50;;;10.60;99.90;;;;;;9985354;28;21081;-62
2023/12/23 23:28:39;;;;;;;6.70;2.83;;;10.60;99.90;;;;;;10011974;28;20729;-65
2023/12/23 23:34:07;;;;;;;5.27;2.90;;;10.50;99.90;;;;;;10018794;28;20820;-61
2023/12/23 23:39:20;;;;;;;4.97;3.10;;;10.60;99.90;;;;;;10028752;28;20252;-66
2023/12/23 23:44:26;;;;;;;5.65;2.85;;;10.50;99.90;;;;;;10039579;28;20713;-66
2023/12/23 23:49:32;;;;;;;5.07;2.70;;;10.50;99.90;;;;;;10043192;28;20738;-66
2023/12/23 23:54:35;;;;;;;5.50;3.23;;;10.50;99.90;;;;;;10049883;28;20252;-67
2023/12/23 23:59:41;;;;;;;8.70;3.07;;;10.50;99.90;;;;;;10047394;28;20687;-68
